Barefootin' — WCX8351 — position and weather

sailwx.info

Track history (hours):
 
Tides and Currents Weather Stations Pressure Air Temp Water Temp Dewpoint Dewpoint Depression Visibility Wind Speed Wind Dir Waves Ship Positions

Barefootin'

Owner: SADLER, ROBERT K, Green Cove Springs, FL. More information available from US FCC via Universal Licensing System and Coast Guard Vessel Documentation Center.

Last reported at 2018-May-07 14:06 UTC. Time now 2018-May-26 23:23 UTC.
Position N 40°45' W 073°58'.
Warning: this ship's position is 19 days out of date.

Length 13 m.

Type: Sailing vessel. MMSI: 366832820.

Date/timePositionNaut miles runAvg speedWind from/ knotsBaromVisibWave heightAir tempDewpointWater temp
2018-May-07 14:06N 40°45' W 073°58'1 6.9
2018-May-07 14:00N 40°45' W 073°58'3 5.8
2018-May-07 13:27N 40°42' W 074°00'2 3.7
2018-May-07 12:58N 40°43' W 074°02'0 0.0
2018-May-06 22:49N 40°43' W 074°02'0 0.0
2018-May-06 22:28N 40°43' W 074°02'1 2.5
2018-May-06 22:00N 40°41' W 074°02'3 5.8
2018-May-06 21:30N 40°39' W 074°03'51 6.7
2018-May-06 13:58N 39°48' W 074°04'4 7.3
2018-May-06 13:29N 39°45' W 074°05'4 7.2
2018-May-06 12:57N 39°41' W 074°06'4 7.2
2018-May-06 12:26N 39°38' W 074°08'25 7.2
2018-May-06 09:00N 39°16' W 074°24'3 7.0
2018-May-06 08:30N 39°14' W 074°27'8 7.0
2018-May-06 07:26N 39°08' W 074°33'3 7.2
2018-May-06 06:59N 39°05' W 074°35'4 7.4
2018-May-06 06:29N 39°02' W 074°38'4 7.6
2018-May-06 06:00N 38°59' W 074°40'4 7.5
2018-May-06 05:30N 38°56' W 074°42'4 7.5
2018-May-06 04:59N 38°52' W 074°45'5 7.6
2018-May-06 04:21N 38°48' W 074°49'3 7.8
2018-May-06 03:59N 38°46' W 074°50'6 7.7
2018-May-06 03:11N 38°40' W 074°53'13 7.3
2018-May-06 01:25N 38°28' W 074°59'104 3.0
2018-May-04 14:11N 36°58' W 076°06'1 6.9
2018-May-04 14:00N 36°57' W 076°04'4 6.5
2018-May-04 13:20N 36°56' W 075°59'2 5.7
2018-May-04 13:00N 36°54' W 075°58'3 6.8
2018-May-04 12:30N 36°51' W 075°56'143 6.1
2018-May-03 13:05N 34°31' W 076°32'1 7.4
2018-May-03 12:57N 34°31' W 076°32'3 7.1
2018-May-03 12:28N 34°34' W 076°35'3 6.9
2018-May-03 12:00N 34°37' W 076°37'3 6.7
2018-May-03 11:30N 34°39' W 076°39'3 6.4
2018-May-03 11:00N 34°42' W 076°41'1 0.0
2018-May-02 17:02N 34°43' W 076°40'0 0.0
2018-May-02 16:59N 34°43' W 076°40'1 2.7
2018-May-02 16:29N 34°42' W 076°40'3 6.5
2018-May-02 15:59N 34°39' W 076°42'4 7.4
2018-May-02 15:30N 34°36' W 076°45'  
Track history (hours):
 
Tides and Currents Weather Stations Pressure Air Temp Water Temp Dewpoint Dewpoint Depression Visibility Wind Speed Wind Dir Waves Ship Positions

Barefootin'

Owner: SADLER, ROBERT K, Green Cove Springs, FL. More information available from US FCC via Universal Licensing System and Coast Guard Vessel Documentation Center.

Last reported at 2018-May-07 14:06 UTC. Time now 2018-May-26 23:23 UTC.
Position N 40°45' W 073°58'.
Warning: this ship's position is 19 days out of date.

Length 13 m.

Type: Sailing vessel. MMSI: 366832820.

Date/timePositionNaut miles runAvg speedWind from/ knotsBaromVisibWave heightAir tempDewpointWater temp
2018-May-07 14:06N 40°45' W 073°58'1 6.9
2018-May-07 14:00N 40°45' W 073°58'3 5.8
2018-May-07 13:27N 40°42' W 074°00'2 3.7
2018-May-07 12:58N 40°43' W 074°02'0 0.0
2018-May-06 22:49N 40°43' W 074°02'0 0.0
2018-May-06 22:28N 40°43' W 074°02'1 2.5
2018-May-06 22:00N 40°41' W 074°02'3 5.8
2018-May-06 21:30N 40°39' W 074°03'51 6.7
2018-May-06 13:58N 39°48' W 074°04'4 7.3
2018-May-06 13:29N 39°45' W 074°05'4 7.2
2018-May-06 12:57N 39°41' W 074°06'4 7.2
2018-May-06 12:26N 39°38' W 074°08'25 7.2
2018-May-06 09:00N 39°16' W 074°24'3 7.0
2018-May-06 08:30N 39°14' W 074°27'8 7.0
2018-May-06 07:26N 39°08' W 074°33'3 7.2
2018-May-06 06:59N 39°05' W 074°35'4 7.4
2018-May-06 06:29N 39°02' W 074°38'4 7.6
2018-May-06 06:00N 38°59' W 074°40'4 7.5
2018-May-06 05:30N 38°56' W 074°42'4 7.5
2018-May-06 04:59N 38°52' W 074°45'5 7.6
2018-May-06 04:21N 38°48' W 074°49'3 7.8
2018-May-06 03:59N 38°46' W 074°50'6 7.7
2018-May-06 03:11N 38°40' W 074°53'13 7.3
2018-May-06 01:25N 38°28' W 074°59'104 3.0
2018-May-04 14:11N 36°58' W 076°06'1 6.9
2018-May-04 14:00N 36°57' W 076°04'4 6.5
2018-May-04 13:20N 36°56' W 075°59'2 5.7
2018-May-04 13:00N 36°54' W 075°58'3 6.8
2018-May-04 12:30N 36°51' W 075°56'143 6.1
2018-May-03 13:05N 34°31' W 076°32'1 7.4
2018-May-03 12:57N 34°31' W 076°32'3 7.1
2018-May-03 12:28N 34°34' W 076°35'3 6.9
2018-May-03 12:00N 34°37' W 076°37'3 6.7
2018-May-03 11:30N 34°39' W 076°39'3 6.4
2018-May-03 11:00N 34°42' W 076°41'1 0.0
2018-May-02 17:02N 34°43' W 076°40'0 0.0
2018-May-02 16:59N 34°43' W 076°40'1 2.7
2018-May-02 16:29N 34°42' W 076°40'3 6.5
2018-May-02 15:59N 34°39' W 076°42'4 7.4
2018-May-02 15:30N 34°36' W 076°45'  

Dump ship's entire track history